Terminal Aerodrome Forecast
Issued by NWS Newport/Morehead City, NC

Home | Current Version | Previous Version | Text Only | Print | Product List | Glossary Off
Versions: 1 2 3 4 5 6 7 8 9 10 11 12 13 14 15 16

000
FTUS42 KMHX 262000 AAA
TAFEWN
TAF AMD
KEWN 262012Z 2620/2718 31012G20KT 6SM BR SCT007 OVC015
      TEMPO 2620/2622 2SM -DZ BKN007
     FM262200 31010KT P6SM BKN015
     FM270300 30005KT P6SM SCT025 BKN050
     FM270800 26002KT 3SM BR BKN007
     FM271500 25008G15KT P6SM BKN050=

USA.gov is the U.S. government's official web portal to all federal, state and local government web resources and services.